sensor_id;sensor_type;location;lat;lon;timestamp;pressure;altitude;pressure_sealevel;temperature;humidity
55590;BME280;41452;42.780;23.116;2023-09-30T00:00:44;94820.88;;;11.80;94.83
55590;BME280;41452;42.780;23.116;2023-09-30T00:03:10;94818.75;;;11.70;95.81
55590;BME280;41452;42.780;23.116;2023-09-30T00:05:38;94802.41;;;11.68;96.81
55590;BME280;41452;42.780;23.116;2023-09-30T00:08:04;94819.81;;;11.81;97.40
55590;BME280;41452;42.780;23.116;2023-09-30T00:10:30;94813.53;;;11.82;97.79
55590;BME280;41452;42.780;23.116;2023-09-30T00:12:58;94811.81;;;11.88;98.29
55590;BME280;41452;42.780;23.116;2023-09-30T00:15:24;94809.75;;;11.90;98.18
55590;BME280;41452;42.780;23.116;2023-09-30T00:17:50;94800.50;;;11.87;98.47
55590;BME280;41452;42.780;23.116;2023-09-30T00:20:15;94817.38;;;11.98;98.69
55590;BME280;41452;42.780;23.116;2023-09-30T00:22:41;94815.75;;;11.97;98.31
55590;BME280;41452;42.780;23.116;2023-09-30T00:25:07;94808.78;;;12.03;98.75
55590;BME280;41452;42.780;23.116;2023-09-30T00:27:33;94805.69;;;12.06;98.22
55590;BME280;41452;42.780;23.116;2023-09-30T00:29:58;94776.16;;;11.92;98.73
55590;BME280;41452;42.780;23.116;2023-09-30T00:32:24;94797.34;;;12.09;98.52
55590;BME280;41452;42.780;23.116;2023-09-30T00:34:49;94799.97;;;12.09;98.50
55590;BME280;41452;42.780;23.116;2023-09-30T00:37:17;94796.09;;;12.11;99.04
55590;BME280;41452;42.780;23.116;2023-09-30T00:39:42;94768.84;;;11.94;99.33
55590;BME280;41452;42.780;23.116;2023-09-30T00:42:10;94791.88;;;12.10;99.66
55590;BME280;41452;42.780;23.116;2023-09-30T00:44:35;94801.13;;;12.13;100.00
55590;BME280;41452;42.780;23.116;2023-09-30T00:47:00;94795.63;;;12.14;100.00
55590;BME280;41452;42.780;23.116;2023-09-30T00:49:26;94780.75;;;12.08;100.00
55590;BME280;41452;42.780;23.116;2023-09-30T00:51:53;94793.91;;;12.20;100.00
55590;BME280;41452;42.780;23.116;2023-09-30T00:54:21;94810.19;;;12.17;100.00
55590;BME280;41452;42.780;23.116;2023-09-30T00:56:48;94797.25;;;12.15;100.00
55590;BME280;41452;42.780;23.116;2023-09-30T00:59:15;94795.97;;;12.18;100.00
55590;BME280;41452;42.780;23.116;2023-09-30T01:01:46;94798.03;;;12.16;100.00
55590;BME280;41452;42.780;23.116;2023-09-30T01:04:12;94797.91;;;12.11;100.00
55590;BME280;41452;42.780;23.116;2023-09-30T01:06:38;94775.69;;;11.95;100.00
55590;BME280;41452;42.780;23.116;2023-09-30T01:09:04;94778.22;;;12.02;100.00
55590;BME280;41452;42.780;23.116;2023-09-30T01:11:30;94797.69;;;12.12;100.00
55590;BME280;41452;42.780;23.116;2023-09-30T01:13:55;94797.56;;;12.07;100.00
55590;BME280;41452;42.780;23.116;2023-09-30T01:16:21;94801.00;;;12.08;100.00
55590;BME280;41452;42.780;23.116;2023-09-30T01:18:46;94799.53;;;12.12;99.49
55590;BME280;41452;42.780;23.116;2023-09-30T01:21:12;94783.97;;;12.10;99.35
55590;BME280;41452;42.780;23.116;2023-09-30T01:23:37;94793.09;;;12.08;99.32
55590;BME280;41452;42.780;23.116;2023-09-30T01:26:11;94797.69;;;12.12;99.20
55590;BME280;41452;42.780;23.116;2023-09-30T01:28:37;94794.72;;;12.21;98.13
55590;BME280;41452;42.780;23.116;2023-09-30T01:31:03;94790.94;;;12.16;97.98
55590;BME280;41452;42.780;23.116;2023-09-30T01:33:29;94797.38;;;12.21;97.68
55590;BME280;41452;42.780;23.116;2023-09-30T01:35:55;94795.97;;;12.18;97.50
55590;BME280;41452;42.780;23.116;2023-09-30T01:38:20;94795.19;;;12.17;97.69
55590;BME280;41452;42.780;23.116;2023-09-30T01:40:46;94791.16;;;12.15;98.10
55590;BME280;41452;42.780;23.116;2023-09-30T01:43:12;94791.97;;;12.15;98.47
55590;BME280;41452;42.780;23.116;2023-09-30T01:45:39;94783.97;;;12.10;98.62
55590;BME280;41452;42.780;23.116;2023-09-30T01:48:05;94788.78;;;12.13;99.10
55590;BME280;41452;42.780;23.116;2023-09-30T01:50:30;94786.16;;;12.13;99.42
55590;BME280;41452;42.780;23.116;2023-09-30T01:52:56;94785.31;;;12.13;99.45
55590;BME280;41452;42.780;23.116;2023-09-30T01:55:22;94757.13;;;11.90;99.46
55590;BME280;41452;42.780;23.116;2023-09-30T01:57:48;94790.13;;;12.04;99.97
55590;BME280;41452;42.780;23.116;2023-09-30T02:00:13;94785.91;;;12.03;100.00
55590;BME280;41452;42.780;23.116;2023-09-30T02:02:38;94788.09;;;12.06;100.00
55590;BME280;41452;42.780;23.116;2023-09-30T02:05:04;94786.81;;;12.09;100.00
55590;BME280;41452;42.780;23.116;2023-09-30T02:07:30;94764.72;;;11.98;100.00
55590;BME280;41452;42.780;23.116;2023-09-30T02:09:56;94788.66;;;12.08;100.00
55590;BME280;41452;42.780;23.116;2023-09-30T02:12:22;94787.84;;;11.96;100.00
55590;BME280;41452;42.780;23.116;2023-09-30T02:14:47;94779.22;;;11.89;100.00
55590;BME280;41452;42.780;23.116;2023-09-30T02:17:13;94784.72;;;11.87;100.00
55590;BME280;41452;42.780;23.116;2023-09-30T02:19:39;94787.13;;;11.89;100.00
55590;BME280;41452;42.780;23.116;2023-09-30T02:22:06;94788.13;;;11.88;99.68
55590;BME280;41452;42.780;23.116;2023-09-30T02:24:31;94790.44;;;11.84;99.89
55590;BME280;41452;42.780;23.116;2023-09-30T02:26:57;94786.22;;;11.83;100.00
55590;BME280;41452;42.780;23.116;2023-09-30T02:29:23;94789.28;;;11.80;100.00
55590;BME280;41452;42.780;23.116;2023-09-30T02:31:48;94763.25;;;11.60;100.00
55590;BME280;41452;42.780;23.116;2023-09-30T02:34:14;94784.56;;;11.70;100.00
55590;BME280;41452;42.780;23.116;2023-09-30T02:36:39;94795.09;;;11.70;100.00
55590;BME280;41452;42.780;23.116;2023-09-30T02:39:05;94792.19;;;11.60;100.00
55590;BME280;41452;42.780;23.116;2023-09-30T02:41:30;94785.78;;;11.56;100.00
55590;BME280;41452;42.780;23.116;2023-09-30T02:43:56;94781.09;;;11.58;100.00
55590;BME280;41452;42.780;23.116;2023-09-30T02:46:21;94785.91;;;11.61;100.00
55590;BME280;41452;42.780;23.116;2023-09-30T02:48:47;94788.06;;;11.52;100.00
55590;BME280;41452;42.780;23.116;2023-09-30T02:51:12;94786.00;;;11.43;100.00
55590;BME280;41452;42.780;23.116;2023-09-30T02:53:38;94786.88;;;11.36;100.00
55590;BME280;41452;42.780;23.116;2023-09-30T02:56:04;94780.69;;;11.31;100.00
55590;BME280;41452;42.780;23.116;2023-09-30T02:58:30;94775.06;;;11.27;100.00
55590;BME280;41452;42.780;23.116;2023-09-30T03:00:55;94786.88;;;11.36;100.00
55590;BME280;41452;42.780;23.116;2023-09-30T03:03:21;94782.53;;;11.30;100.00
55590;BME280;41452;42.780;23.116;2023-09-30T03:05:47;94785.47;;;11.22;100.00
55590;BME280;41452;42.780;23.116;2023-09-30T03:08:15;94780.34;;;11.27;100.00
55590;BME280;41452;42.780;23.116;2023-09-30T03:10:40;94777.56;;;11.22;99.65
55590;BME280;41452;42.780;23.116;2023-09-30T03:13:06;94785.59;;;11.27;99.51
55590;BME280;41452;42.780;23.116;2023-09-30T03:15:34;94778.38;;;11.22;100.00
55590;BME280;41452;42.780;23.116;2023-09-30T03:18:00;94764.03;;;11.07;100.00
55590;BME280;41452;42.780;23.116;2023-09-30T03:20:25;94779.63;;;11.20;100.00
55590;BME280;41452;42.780;23.116;2023-09-30T03:22:52;94785.31;;;11.17;100.00
55590;BME280;41452;42.780;23.116;2023-09-30T03:25:18;94778.47;;;11.16;99.48
55590;BME280;41452;42.780;23.116;2023-09-30T03:27:45;94778.84;;;11.19;99.70
55590;BME280;41452;42.780;23.116;2023-09-30T03:30:14;94782.47;;;11.18;99.53
55590;BME280;41452;42.780;23.116;2023-09-30T03:32:41;94784.81;;;11.08;100.00
55590;BME280;41452;42.780;23.116;2023-09-30T03:35:10;94790.97;;;11.02;100.00
55590;BME280;41452;42.780;23.116;2023-09-30T03:37:39;94789.22;;;10.96;100.00
55590;BME280;41452;42.780;23.116;2023-09-30T03:40:06;94790.19;;;11.01;100.00
55590;BME280;41452;42.780;23.116;2023-09-30T03:42:44;94783.59;;;10.92;100.00
55590;BME280;41452;42.780;23.116;2023-09-30T03:45:10;94787.44;;;10.96;100.00
55590;BME280;41452;42.780;23.116;2023-09-30T03:47:37;94780.13;;;10.98;100.00
55590;BME280;41452;42.780;23.116;2023-09-30T03:50:04;94785.38;;;10.98;99.84
55590;BME280;41452;42.780;23.116;2023-09-30T03:52:32;94783.81;;;10.91;100.00
55590;BME280;41452;42.780;23.116;2023-09-30T03:55:01;94779.53;;;10.96;99.93
55590;BME280;41452;42.780;23.116;2023-09-30T03:57:31;94773.81;;;10.99;100.00
55590;BME280;41452;42.780;23.116;2023-09-30T03:59:59;94757.66;;;10.84;99.45
55590;BME280;41452;42.780;23.116;2023-09-30T04:02:24;94776.19;;;10.89;100.00
55590;BME280;41452;42.780;23.116;2023-09-30T04:04:51;94762.84;;;10.72;100.00
55590;BME280;41452;42.780;23.116;2023-09-30T04:07:19;94758.03;;;10.69;100.00
55590;BME280;41452;42.780;23.116;2023-09-30T04:09:44;94776.19;;;10.89;100.00
55590;BME280;41452;42.780;23.116;2023-09-30T04:12:09;94782.25;;;10.90;100.00
55590;BME280;41452;42.780;23.116;2023-09-30T04:14:35;94775.16;;;10.90;100.00
55590;BME280;41452;42.780;23.116;2023-09-30T04:17:00;94784.72;;;10.84;100.00
55590;BME280;41452;42.780;23.116;2023-09-30T04:19:25;94777.50;;;10.80;100.00
55590;BME280;41452;42.780;23.116;2023-09-30T04:21:51;94784.06;;;10.89;100.00
55590;BME280;41452;42.780;23.116;2023-09-30T04:24:16;94775.38;;;10.89;100.00
55590;BME280;41452;42.780;23.116;2023-09-30T04:26:44;94780.25;;;11.03;99.95
55590;BME280;41452;42.780;23.116;2023-09-30T04:29:10;94782.41;;;11.07;99.38
55590;BME280;41452;42.780;23.116;2023-09-30T04:31:37;94784.19;;;11.13;99.33
55590;BME280;41452;42.780;23.116;2023-09-30T04:34:04;94788.56;;;11.00;100.00
55590;BME280;41452;42.780;23.116;2023-09-30T04:36:30;94790.91;;;11.09;100.00
55590;BME280;41452;42.780;23.116;2023-09-30T04:38:56;94793.06;;;11.12;100.00
55590;BME280;41452;42.780;23.116;2023-09-30T04:41:21;94784.59;;;11.10;99.52
55590;BME280;41452;42.780;23.116;2023-09-30T04:43:46;94795.31;;;10.96;100.00
55590;BME280;41452;42.780;23.116;2023-09-30T04:46:13;94799.22;;;10.87;100.00
55590;BME280;41452;42.780;23.116;2023-09-30T04:48:38;94805.34;;;10.99;100.00
55590;BME280;41452;42.780;23.116;2023-09-30T04:51:07;94810.09;;;11.09;100.00
55590;BME280;41452;42.780;23.116;2023-09-30T04:53:33;94803.94;;;11.15;100.00
55590;BME280;41452;42.780;23.116;2023-09-30T04:55:59;94801.91;;;11.17;100.00
55590;BME280;41452;42.780;23.116;2023-09-30T04:58:24;94809.19;;;11.15;100.00
55590;BME280;41452;42.780;23.116;2023-09-30T05:00:50;94806.94;;;11.19;100.00
55590;BME280;41452;42.780;23.116;2023-09-30T05:03:15;94810.97;;;11.21;100.00
55590;BME280;41452;42.780;23.116;2023-09-30T05:05:41;94809.63;;;11.31;100.00
55590;BME280;41452;42.780;23.116;2023-09-30T05:08:07;94810.19;;;11.33;100.00
55590;BME280;41452;42.780;23.116;2023-09-30T05:10:33;94812.25;;;11.31;100.00
55590;BME280;41452;42.780;23.116;2023-09-30T05:12:58;94817.28;;;11.32;100.00
55590;BME280;41452;42.780;23.116;2023-09-30T05:15:24;94819.38;;;11.42;100.00
55590;BME280;41452;42.780;23.116;2023-09-30T05:17:51;94819.28;;;11.49;100.00
55590;BME280;41452;42.780;23.116;2023-09-30T05:20:16;94819.72;;;11.46;100.00
55590;BME280;41452;42.780;23.116;2023-09-30T05:22:42;94797.38;;;11.25;100.00
55590;BME280;41452;42.780;23.116;2023-09-30T05:25:14;94803.34;;;11.32;100.00
55590;BME280;41452;42.780;23.116;2023-09-30T05:27:41;94825.69;;;11.53;100.00
55590;BME280;41452;42.780;23.116;2023-09-30T05:30:07;94818.84;;;11.52;100.00
55590;BME280;41452;42.780;23.116;2023-09-30T05:32:33;94824.00;;;11.58;100.00
55590;BME280;41452;42.780;23.116;2023-09-30T05:35:00;94826.88;;;11.69;100.00
55590;BME280;41452;42.780;23.116;2023-09-30T05:37:28;94820.81;;;11.68;100.00
55590;BME280;41452;42.780;23.116;2023-09-30T05:39:53;94835.38;;;11.83;100.00
55590;BME280;41452;42.780;23.116;2023-09-30T05:42:19;94834.06;;;11.92;100.00
55590;BME280;41452;42.780;23.116;2023-09-30T05:44:44;94840.38;;;12.03;100.00
55590;BME280;41452;42.780;23.116;2023-09-30T05:47:11;94843.13;;;12.08;100.00
55590;BME280;41452;42.780;23.116;2023-09-30T05:49:37;94844.63;;;12.15;100.00
55590;BME280;41452;42.780;23.116;2023-09-30T05:52:03;94851.28;;;12.30;100.00
55590;BME280;41452;42.780;23.116;2023-09-30T05:54:28;94843.84;;;12.27;100.00
55590;BME280;41452;42.780;23.116;2023-09-30T05:56:54;94851.50;;;12.28;100.00
55590;BME280;41452;42.780;23.116;2023-09-30T05:59:20;94853.81;;;12.48;100.00
55590;BME280;41452;42.780;23.116;2023-09-30T06:01:46;94833.41;;;12.55;100.00
55590;BME280;41452;42.780;23.116;2023-09-30T06:04:11;94847.16;;;12.81;100.00
55590;BME280;41452;42.780;23.116;2023-09-30T06:06:37;94844.81;;;12.97;100.00
55590;BME280;41452;42.780;23.116;2023-09-30T06:09:03;94855.22;;;13.15;100.00
55590;BME280;41452;42.780;23.116;2023-09-30T06:11:29;94850.94;;;13.26;100.00
55590;BME280;41452;42.780;23.116;2023-09-30T06:13:55;94840.84;;;13.35;100.00
55590;BME280;41452;42.780;23.116;2023-09-30T06:16:21;94849.03;;;13.50;100.00
55590;BME280;41452;42.780;23.116;2023-09-30T06:18:46;94833.06;;;13.57;99.38
55590;BME280;41452;42.780;23.116;2023-09-30T06:21:13;94849.28;;;13.77;99.96
55590;BME280;41452;42.780;23.116;2023-09-30T06:23:40;94846.81;;;13.87;99.84
55590;BME280;41452;42.780;23.116;2023-09-30T06:26:05;94845.16;;;13.98;96.14
55590;BME280;41452;42.780;23.116;2023-09-30T06:28:31;94854.28;;;14.07;98.71
55590;BME280;41452;42.780;23.116;2023-09-30T06:30:59;94858.19;;;14.22;95.46
55590;BME280;41452;42.780;23.116;2023-09-30T06:33:25;94853.72;;;14.39;96.00
55590;BME280;41452;42.780;23.116;2023-09-30T06:35:54;94861.41;;;14.58;96.32
55590;BME280;41452;42.780;23.116;2023-09-30T06:38:20;94860.53;;;14.69;92.18
55590;BME280;41452;42.780;23.116;2023-09-30T06:40:46;94850.28;;;14.73;88.87
55590;BME280;41452;42.780;23.116;2023-09-30T06:43:14;94843.81;;;14.86;84.95
55590;BME280;41452;42.780;23.116;2023-09-30T06:45:43;94875.16;;;15.16;84.39
55590;BME280;41452;42.780;23.116;2023-09-30T06:48:10;94866.84;;;15.29;84.56
55590;BME280;41452;42.780;23.116;2023-09-30T06:50:40;94867.50;;;15.42;81.43
55590;BME280;41452;42.780;23.116;2023-09-30T06:53:05;94862.88;;;15.54;83.86
55590;BME280;41452;42.780;23.116;2023-09-30T06:55:31;94868.03;;;15.66;84.20
55590;BME280;41452;42.780;23.116;2023-09-30T06:57:57;94864.47;;;15.77;81.67
55590;BME280;41452;42.780;23.116;2023-09-30T07:00:22;94867.34;;;15.98;81.59
55590;BME280;41452;42.780;23.116;2023-09-30T07:02:47;94866.41;;;16.14;83.40
55590;BME280;41452;42.780;23.116;2023-09-30T07:05:14;94875.03;;;16.31;80.39
55590;BME280;41452;42.780;23.116;2023-09-30T07:07:40;94871.19;;;16.49;82.46
55590;BME280;41452;42.780;23.116;2023-09-30T07:10:08;94877.38;;;16.60;76.34
55590;BME280;41452;42.780;23.116;2023-09-30T07:12:35;94844.50;;;16.61;75.41
55590;BME280;41452;42.780;23.116;2023-09-30T07:15:04;94879.69;;;16.89;75.73
55590;BME280;41452;42.780;23.116;2023-09-30T07:17:30;94865.44;;;17.00;74.40
55590;BME280;41452;42.780;23.116;2023-09-30T07:19:56;94874.84;;;17.23;74.30
55590;BME280;41452;42.780;23.116;2023-09-30T07:22:22;94874.63;;;17.35;69.87
55590;BME280;41452;42.780;23.116;2023-09-30T07:24:47;94867.22;;;17.47;72.37
55590;BME280;41452;42.780;23.116;2023-09-30T07:27:13;94882.44;;;17.62;73.70
55590;BME280;41452;42.780;23.116;2023-09-30T07:29:38;94877.94;;;17.73;69.22
55590;BME280;41452;42.780;23.116;2023-09-30T07:32:03;94876.09;;;17.79;70.89
55590;BME280;41452;42.780;23.116;2023-09-30T07:34:29;94877.19;;;17.88;71.00
55590;BME280;41452;42.780;23.116;2023-09-30T07:36:55;94881.75;;;17.93;67.18
55590;BME280;41452;42.780;23.116;2023-09-30T07:39:20;94877.22;;;17.98;68.38
55590;BME280;41452;42.780;23.116;2023-09-30T07:41:46;94883.88;;;18.11;67.70
55590;BME280;41452;42.780;23.116;2023-09-30T07:44:12;94869.00;;;18.15;65.29
55590;BME280;41452;42.780;23.116;2023-09-30T07:46:37;94889.75;;;18.39;64.75
55590;BME280;41452;42.780;23.116;2023-09-30T07:49:03;94887.09;;;18.44;70.84
55590;BME280;41452;42.780;23.116;2023-09-30T07:51:28;94884.94;;;18.56;67.60
55590;BME280;41452;42.780;23.116;2023-09-30T07:53:55;94881.75;;;18.70;67.00
55590;BME280;41452;42.780;23.116;2023-09-30T07:56:20;94891.06;;;18.77;69.34
55590;BME280;41452;42.780;23.116;2023-09-30T07:58:48;94890.81;;;18.89;65.69
55590;BME280;41452;42.780;23.116;2023-09-30T08:01:13;94881.47;;;18.97;61.98
55590;BME280;41452;42.780;23.116;2023-09-30T08:03:40;94888.13;;;19.10;64.81
55590;BME280;41452;42.780;23.116;2023-09-30T08:06:07;94888.34;;;19.18;61.99
55590;BME280;41452;42.780;23.116;2023-09-30T08:08:34;94881.34;;;19.38;60.15
55590;BME280;41452;42.780;23.116;2023-09-30T08:11:00;94881.56;;;19.52;59.77
55590;BME280;41452;42.780;23.116;2023-09-30T08:13:25;94872.09;;;19.85;55.16
55590;BME280;41452;42.780;23.116;2023-09-30T08:15:51;94881.94;;;19.90;58.50
55590;BME280;41452;42.780;23.116;2023-09-30T08:18:17;94873.47;;;19.83;54.58
55590;BME280;41452;42.780;23.116;2023-09-30T08:20:43;94878.09;;;20.11;55.59
55590;BME280;41452;42.780;23.116;2023-09-30T08:23:08;94881.28;;;20.08;54.43
55590;BME280;41452;42.780;23.116;2023-09-30T08:25:33;94882.59;;;20.11;55.70
55590;BME280;41452;42.780;23.116;2023-09-30T08:27:59;94880.75;;;20.11;54.30
55590;BME280;41452;42.780;23.116;2023-09-30T08:30:25;94877.91;;;20.32;51.93
55590;BME280;41452;42.780;23.116;2023-09-30T08:32:51;94873.88;;;20.40;51.72
55590;BME280;41452;42.780;23.116;2023-09-30T08:35:16;94853.38;;;20.35;51.08
55590;BME280;41452;42.780;23.116;2023-09-30T08:37:42;94871.44;;;20.43;54.98
55590;BME280;41452;42.780;23.116;2023-09-30T08:40:07;94875.69;;;20.44;51.69
55590;BME280;41452;42.780;23.116;2023-09-30T08:42:35;94874.63;;;20.45;52.94
55590;BME280;41452;42.780;23.116;2023-09-30T08:45:01;94875.63;;;20.55;51.35
55590;BME280;41452;42.780;23.116;2023-09-30T08:47:27;94874.22;;;20.62;50.16
55590;BME280;41452;42.780;23.116;2023-09-30T08:49:58;94850.00;;;20.54;49.84
55590;BME280;41452;42.780;23.116;2023-09-30T08:52:31;94879.25;;;20.69;49.21
55590;BME280;41452;42.780;23.116;2023-09-30T08:54:57;94873.00;;;20.84;50.00
55590;BME280;41452;42.780;23.116;2023-09-30T08:57:24;94855.25;;;20.69;50.86
55590;BME280;41452;42.780;23.116;2023-09-30T08:59:50;94844.06;;;20.67;50.68
55590;BME280;41452;42.780;23.116;2023-09-30T09:02:18;94870.78;;;21.15;46.57
55590;BME280;41452;42.780;23.116;2023-09-30T09:04:45;94866.63;;;21.28;44.07
55590;BME280;41452;42.780;23.116;2023-09-30T09:07:11;94863.78;;;21.19;42.57
55590;BME280;41452;42.780;23.116;2023-09-30T09:09:36;94864.72;;;21.10;43.66
55590;BME280;41452;42.780;23.116;2023-09-30T09:12:02;94856.97;;;21.08;46.27
55590;BME280;41452;42.780;23.116;2023-09-30T09:14:41;94868.63;;;21.17;42.30
55590;BME280;41452;42.780;23.116;2023-09-30T09:17:11;94857.25;;;21.06;45.31
55590;BME280;41452;42.780;23.116;2023-09-30T09:19:37;94863.66;;;21.11;46.87
55590;BME280;41452;42.780;23.116;2023-09-30T09:22:03;94859.44;;;21.29;43.71
55590;BME280;41452;42.780;23.116;2023-09-30T09:24:36;94849.09;;;21.22;51.86
55590;BME280;41452;42.780;23.116;2023-09-30T09:27:11;94853.88;;;21.25;48.00
55590;BME280;41452;42.780;23.116;2023-09-30T09:29:38;94853.28;;;21.28;46.28
55590;BME280;41452;42.780;23.116;2023-09-30T09:32:11;94849.53;;;21.29;44.64
55590;BME280;41452;42.780;23.116;2023-09-30T09:34:38;94852.03;;;21.44;44.87
55590;BME280;41452;42.780;23.116;2023-09-30T09:37:17;94849.19;;;21.36;46.22
55590;BME280;41452;42.780;23.116;2023-09-30T09:40:09;94851.13;;;21.54;43.73
55590;BME280;41452;42.780;23.116;2023-09-30T09:42:39;94838.13;;;21.48;44.02
55590;BME280;41452;42.780;23.116;2023-09-30T09:45:05;94816.56;;;21.39;46.17
55590;BME280;41452;42.780;23.116;2023-09-30T09:47:34;94840.88;;;21.61;44.86
55590;BME280;41452;42.780;23.116;2023-09-30T09:49:59;94838.06;;;21.53;42.87
55590;BME280;41452;42.780;23.116;2023-09-30T09:52:28;94840.44;;;21.54;42.95
55590;BME280;41452;42.780;23.116;2023-09-30T09:54:54;94831.19;;;21.65;44.56
55590;BME280;41452;42.780;23.116;2023-09-30T09:57:20;94831.44;;;21.69;43.22
55590;BME280;41452;42.780;23.116;2023-09-30T09:59:46;94802.91;;;21.64;47.47
55590;BME280;41452;42.780;23.116;2023-09-30T10:02:16;94831.66;;;21.92;42.94
55590;BME280;41452;42.780;23.116;2023-09-30T10:04:44;94823.75;;;22.00;44.40
55590;BME280;41452;42.780;23.116;2023-09-30T10:07:22;94813.84;;;22.01;43.28
55590;BME280;41452;42.780;23.116;2023-09-30T10:09:52;94814.16;;;21.99;43.54
55590;BME280;41452;42.780;23.116;2023-09-30T10:12:18;94808.50;;;22.01;45.26
55590;BME280;41452;42.780;23.116;2023-09-30T10:14:45;94790.00;;;22.05;42.11
55590;BME280;41452;42.780;23.116;2023-09-30T10:17:10;94812.84;;;22.16;44.24
55590;BME280;41452;42.780;23.116;2023-09-30T10:20:05;94804.91;;;22.11;41.85
55590;BME280;41452;42.780;23.116;2023-09-30T10:22:32;94801.34;;;22.15;44.05
55590;BME280;41452;42.780;23.116;2023-09-30T10:24:58;94799.53;;;22.11;43.02
55590;BME280;41452;42.780;23.116;2023-09-30T10:27:31;94804.81;;;22.16;42.89
55590;BME280;41452;42.780;23.116;2023-09-30T10:40:53;94794.88;;;21.83;43.47
55590;BME280;41452;42.780;23.116;2023-09-30T10:43:54;94783.81;;;21.90;44.85
55590;BME280;41452;42.780;23.116;2023-09-30T10:46:40;94780.13;;;21.86;43.12
55590;BME280;41452;42.780;23.116;2023-09-30T10:49:36;94788.28;;;21.76;47.23
55590;BME280;41452;42.780;23.116;2023-09-30T10:52:04;94781.03;;;21.62;45.67
55590;BME280;41452;42.780;23.116;2023-09-30T10:54:31;94778.34;;;21.62;43.74
55590;BME280;41452;42.780;23.116;2023-09-30T10:56:57;94773.56;;;21.59;45.14
55590;BME280;41452;42.780;23.116;2023-09-30T10:59:27;94778.91;;;21.59;44.89
55590;BME280;41452;42.780;23.116;2023-09-30T11:01:56;94765.41;;;21.51;45.38
55590;BME280;41452;42.780;23.116;2023-09-30T11:04:22;94763.13;;;21.39;41.73
55590;BME280;41452;42.780;23.116;2023-09-30T11:06:47;94752.53;;;21.34;42.87
55590;BME280;41452;42.780;23.116;2023-09-30T11:09:17;94772.25;;;21.38;46.17
55590;BME280;41452;42.780;23.116;2023-09-30T11:11:45;94775.75;;;21.33;44.07
55590;BME280;41452;42.780;23.116;2023-09-30T11:16:53;94771.78;;;21.31;41.12
55590;BME280;41452;42.780;23.116;2023-09-30T11:19:20;94765.19;;;21.47;43.05
55590;BME280;41452;42.780;23.116;2023-09-30T11:21:48;94755.00;;;21.68;42.19
55590;BME280;41452;42.780;23.116;2023-09-30T11:24:14;94761.41;;;21.86;43.35
55590;BME280;41452;42.780;23.116;2023-09-30T11:26:40;94762.94;;;21.92;44.00
55590;BME280;41452;42.780;23.116;2023-09-30T11:29:07;94746.91;;;22.06;42.17
55590;BME280;41452;42.780;23.116;2023-09-30T11:31:32;94743.97;;;22.08;39.85
55590;BME280;41452;42.780;23.116;2023-09-30T11:33:59;94746.09;;;22.25;41.01
55590;BME280;41452;42.780;23.116;2023-09-30T11:36:29;94749.72;;;22.34;41.85
55590;BME280;41452;42.780;23.116;2023-09-30T11:38:56;94743.78;;;22.37;39.46
55590;BME280;41452;42.780;23.116;2023-09-30T11:41:21;94742.59;;;22.43;39.32
55590;BME280;41452;42.780;23.116;2023-09-30T11:46:30;94742.19;;;22.50;40.54
55590;BME280;41452;42.780;23.116;2023-09-30T11:49:01;94702.34;;;22.34;39.79
55590;BME280;41452;42.780;23.116;2023-09-30T11:51:28;94726.63;;;22.52;41.90
55590;BME280;41452;42.780;23.116;2023-09-30T11:53:54;94724.38;;;22.59;39.23
55590;BME280;41452;42.780;23.116;2023-09-30T11:56:21;94727.91;;;22.54;37.80
55590;BME280;41452;42.780;23.116;2023-09-30T11:58:53;94725.03;;;22.51;40.39
55590;BME280;41452;42.780;23.116;2023-09-30T12:01:18;94722.38;;;22.51;37.52
55590;BME280;41452;42.780;23.116;2023-09-30T12:03:44;94717.94;;;22.60;37.44
55590;BME280;41452;42.780;23.116;2023-09-30T12:06:09;94718.63;;;22.66;37.44
55590;BME280;41452;42.780;23.116;2023-09-30T12:08:39;94713.88;;;22.76;36.44
55590;BME280;41452;42.780;23.116;2023-09-30T12:11:05;94718.22;;;22.86;37.66
55590;BME280;41452;42.780;23.116;2023-09-30T12:13:31;94712.06;;;22.86;35.45
55590;BME280;41452;42.780;23.116;2023-09-30T12:15:56;94714.25;;;22.84;37.09
55590;BME280;41452;42.780;23.116;2023-09-30T12:18:22;94712.84;;;22.86;35.66
55590;BME280;41452;42.780;23.116;2023-09-30T12:20:51;94688.28;;;22.70;35.39
55590;BME280;41452;42.780;23.116;2023-09-30T12:23:20;94706.22;;;22.84;35.30
55590;BME280;41452;42.780;23.116;2023-09-30T12:25:46;94698.38;;;22.73;36.83
55590;BME280;41452;42.780;23.116;2023-09-30T12:28:12;94690.66;;;22.86;38.09
55590;BME280;41452;42.780;23.116;2023-09-30T12:30:39;94696.78;;;23.00;35.23
55590;BME280;41452;42.780;23.116;2023-09-30T12:33:05;94688.66;;;23.05;37.13
55590;BME280;41452;42.780;23.116;2023-09-30T12:35:31;94691.25;;;23.10;34.68
55590;BME280;41452;42.780;23.116;2023-09-30T12:37:57;94671.41;;;22.97;36.33
55590;BME280;41452;42.780;23.116;2023-09-30T12:40:23;94685.56;;;22.98;35.69
55590;BME280;41452;42.780;23.116;2023-09-30T12:42:48;94684.97;;;23.01;35.55
55590;BME280;41452;42.780;23.116;2023-09-30T12:45:14;94685.47;;;23.03;36.24
55590;BME280;41452;42.780;23.116;2023-09-30T12:47:39;94688.38;;;23.07;36.99
55590;BME280;41452;42.780;23.116;2023-09-30T12:50:06;94680.91;;;23.04;37.09
55590;BME280;41452;42.780;23.116;2023-09-30T12:52:34;94679.00;;;23.18;36.27
55590;BME280;41452;42.780;23.116;2023-09-30T12:55:00;94676.88;;;23.06;35.79
55590;BME280;41452;42.780;23.116;2023-09-30T12:57:25;94683.69;;;22.98;37.40
55590;BME280;41452;42.780;23.116;2023-09-30T12:59:51;94671.09;;;22.99;35.92
55590;BME280;41452;42.780;23.116;2023-09-30T13:02:16;94673.78;;;22.99;36.09